createdAt,value
2019-01-23T00:03:58.131Z,94479.43
2019-01-23T00:06:41.019Z,94468.22
2019-01-23T00:12:40.059Z,94478.44
2019-01-23T00:15:30.767Z,94462.84
2019-01-23T00:18:19.185Z,94465.73
2019-01-23T00:21:02.669Z,94463.91
2019-01-23T00:23:52.521Z,94455.82
2019-01-23T00:26:42.404Z,94457.42
2019-01-23T00:29:32.245Z,94451.52
2019-01-23T00:32:22.167Z,94446.00
2019-01-23T00:35:04.515Z,94420.12
2019-01-23T00:37:54.329Z,94437.90
2019-01-23T00:40:44.193Z,94430.53
2019-01-23T00:43:34.018Z,94428.94
2019-01-23T00:46:23.751Z,94419.73
2019-01-23T00:49:06.109Z,94415.33
2019-01-23T00:51:55.933Z,94397.06
2019-01-23T00:54:45.714Z,94404.17
2019-01-23T00:57:35.505Z,94404.63
2019-01-23T01:00:26.209Z,94398.37
2019-01-23T01:03:15.986Z,94392.93
2019-01-23T01:06:06.085Z,94396.22
2019-01-23T01:09:15.080Z,94395.35
2019-01-23T01:12:04.910Z,94393.45
2019-01-23T01:15:13.837Z,94383.19
2019-01-23T01:17:56.202Z,94377.34
2019-01-23T01:20:46.044Z,94367.89
2019-01-23T01:23:36.767Z,94366.58
2019-01-23T01:26:26.551Z,94362.00
2019-01-23T01:29:16.277Z,94361.94
2019-01-23T01:32:06.069Z,94360.41
2019-01-23T01:34:55.847Z,94346.26
2019-01-23T01:37:38.010Z,94337.30
2019-01-23T01:40:27.767Z,94342.31
2019-01-23T01:43:10.324Z,94346.33
2019-01-23T01:46:00.064Z,94355.78
2019-01-23T01:48:42.491Z,94343.97
2019-01-23T01:51:32.236Z,94349.31
2019-01-23T01:54:15.058Z,94342.94
2019-01-23T01:57:04.800Z,94343.19
2019-01-23T01:59:54.538Z,94339.64
2019-01-23T02:02:37.199Z,94304.95
2019-01-23T02:10:48.140Z,94319.89
2019-01-23T02:13:37.952Z,94312.37
2019-01-23T02:16:27.770Z,94286.51
2019-01-23T02:19:17.570Z,94311.02
2019-01-23T02:22:07.362Z,94307.08
2019-01-23T02:24:57.179Z,94281.95
2019-01-23T02:30:43.911Z,94296.70
2019-01-23T02:33:33.624Z,94277.23
2019-01-23T02:36:15.820Z,94290.51
2019-01-23T02:42:23.738Z,94287.18
2019-01-23T02:45:13.766Z,94278.84
2019-01-23T02:48:03.592Z,94275.73
2019-01-23T02:50:34.270Z,94256.87
2019-01-23T02:53:24.294Z,94269.42
2019-01-23T02:56:07.700Z,94251.10
2019-01-23T02:58:57.506Z,94261.07
2019-01-23T03:02:06.521Z,94258.41
2019-01-23T03:04:49.051Z,94259.57
2019-01-23T03:07:38.882Z,94250.50
2019-01-23T03:10:28.668Z,94245.91
2019-01-23T03:13:10.758Z,94236.67
2019-01-23T03:16:00.592Z,94228.94
2019-01-23T03:18:50.398Z,94225.75
2019-01-23T03:21:40.141Z,94228.96
2019-01-23T03:24:29.887Z,94205.28
2019-01-23T03:27:19.655Z,94219.85
2019-01-23T03:30:03.505Z,94204.56
2019-01-23T03:32:53.275Z,94215.28
2019-01-23T03:35:36.356Z,94208.66
2019-01-23T03:38:26.096Z,94208.41
2019-01-23T03:41:15.864Z,94199.97
2019-01-23T03:43:58.328Z,94200.98
2019-01-23T03:46:48.132Z,94195.27
2019-01-23T03:49:37.932Z,94171.20
2019-01-23T03:52:27.750Z,94180.97
2019-01-23T03:55:17.976Z,94182.17
2019-01-23T03:58:07.751Z,94186.44
2019-01-23T04:03:51.194Z,94184.46
2019-01-23T04:06:41.032Z,94171.81
2019-01-23T04:09:30.795Z,94176.66
2019-01-23T04:12:21.180Z,94176.59
2019-01-23T04:20:32.988Z,94161.53
2019-01-23T04:23:22.712Z,94158.15
2019-01-23T04:26:05.152Z,94139.14
2019-01-23T04:28:54.959Z,94156.88
2019-01-23T04:31:44.777Z,94130.51
2019-01-23T04:34:34.638Z,94153.58
2019-01-23T04:37:24.456Z,94142.03
2019-01-23T04:40:14.358Z,94138.16
2019-01-23T04:43:04.168Z,94121.16
2019-01-23T04:45:53.923Z,94137.95
2019-01-23T04:48:36.053Z,94127.48
2019-01-23T04:54:20.097Z,94121.03
2019-01-23T04:57:09.915Z,94123.77
2019-01-23T04:59:59.729Z,94120.20
2019-01-23T05:02:43.013Z,94117.05
2019-01-23T05:05:32.793Z,94113.55
2019-01-23T05:08:15.466Z,94100.45
2019-01-23T05:11:05.243Z,94101.73
2019-01-23T05:14:14.103Z,94103.63
2019-01-23T05:16:56.385Z,94101.14
2019-01-23T05:19:46.161Z,94094.70
2019-01-23T05:22:36.273Z,94092.22
2019-01-23T05:25:26.027Z,94085.98
2019-01-23T05:28:15.771Z,94083.01
2019-01-23T05:31:05.553Z,94080.34
2019-01-23T05:33:47.841Z,94085.00
2019-01-23T05:36:37.574Z,94073.94
2019-01-23T05:39:20.088Z,94075.19
2019-01-23T05:42:09.895Z,94078.48
2019-01-23T05:44:52.291Z,94065.70
2019-01-23T05:47:42.032Z,94068.52
2019-01-23T05:50:24.413Z,94061.64
2019-01-23T05:53:06.491Z,94063.37
2019-01-23T05:59:00.145Z,94071.27
2019-01-23T06:01:42.536Z,94057.97
2019-01-23T06:04:32.360Z,94067.34
2019-01-23T06:07:22.136Z,94062.52
2019-01-23T06:10:31.104Z,94046.34
2019-01-23T06:13:20.870Z,94043.39
2019-01-23T06:16:10.686Z,94061.67
2019-01-23T06:19:00.480Z,94063.01
2019-01-23T06:21:50.294Z,94068.06
2019-01-23T06:24:40.063Z,94064.84
2019-01-23T06:27:29.847Z,94055.05
2019-01-23T06:33:27.910Z,94048.22
2019-01-23T06:36:17.654Z,94057.76
2019-01-23T06:39:00.068Z,94051.46
2019-01-23T06:41:49.852Z,94057.89
2019-01-23T06:44:32.124Z,94058.23
2019-01-23T06:47:21.862Z,94032.04
2019-01-23T06:50:04.832Z,94050.56
2019-01-23T06:52:54.546Z,94046.47
2019-01-23T06:55:37.196Z,94046.19
2019-01-23T06:58:26.958Z,94047.88
2019-01-23T07:01:09.646Z,94050.48
2019-01-23T07:03:59.402Z,94048.34
2019-01-23T07:06:41.383Z,94048.55
2019-01-23T07:09:31.192Z,94039.86
2019-01-23T07:12:13.159Z,94047.13
2019-01-23T07:15:02.929Z,94045.30
2019-01-23T07:17:52.714Z,94049.64
2019-01-23T07:20:42.522Z,94039.67
2019-01-23T07:23:25.105Z,94036.88
2019-01-23T07:29:08.610Z,94033.30
2019-01-23T07:31:58.420Z,94040.28
2019-01-23T07:37:51.886Z,94037.36
2019-01-23T07:40:33.976Z,94044.12
2019-01-23T07:43:23.751Z,94044.61
2019-01-23T07:46:13.686Z,94029.33
2019-01-23T07:49:03.584Z,94018.59
2019-01-23T07:51:53.384Z,94036.84
2019-01-23T07:54:43.134Z,94031.11
2019-01-23T07:57:32.955Z,94010.61
2019-01-23T08:00:23.806Z,94030.36
2019-01-23T08:03:13.676Z,94029.03
2019-01-23T08:09:09.097Z,94012.75
2019-01-23T08:11:51.500Z,94027.13
2019-01-23T08:14:42.217Z,94006.58
2019-01-23T08:17:25.306Z,94024.70
2019-01-23T08:20:17.293Z,94007.77
2019-01-23T08:23:07.065Z,94018.73
2019-01-23T08:26:15.864Z,94013.61
2019-01-23T08:28:58.737Z,94012.34
2019-01-23T08:31:48.543Z,94009.13
2019-01-23T08:34:38.382Z,94006.80
2019-01-23T08:37:28.199Z,94006.52
2019-01-23T08:40:17.999Z,94006.11
2019-01-23T08:43:07.780Z,94010.93
2019-01-23T08:45:57.603Z,94013.83
2019-01-23T08:48:47.433Z,93988.97
2019-01-23T08:51:37.365Z,94013.55
2019-01-23T08:54:27.157Z,94007.59
2019-01-23T08:57:16.989Z,93988.36
2019-01-23T09:03:23.054Z,93982.59
2019-01-23T09:06:12.829Z,94001.22
2019-01-23T09:09:15.288Z,93997.40
2019-01-23T09:11:57.589Z,94007.73
2019-01-23T09:14:47.295Z,93996.09
2019-01-23T09:17:29.315Z,93995.99
2019-01-23T09:20:19.391Z,93998.12
2019-01-23T09:23:01.912Z,93977.06
2019-01-23T09:26:12.183Z,94003.95
2019-01-23T09:28:54.813Z,94007.03
2019-01-23T09:32:22.727Z,93984.16
2019-01-23T09:35:14.669Z,93994.30
2019-01-23T09:38:42.615Z,93989.30
2019-01-23T09:42:05.729Z,94007.54
2019-01-23T09:45:33.647Z,94007.56
2019-01-23T09:49:01.615Z,93997.70
2019-01-23T09:52:29.524Z,94004.82
2019-01-23T09:55:19.617Z,93984.57
2019-01-23T09:58:11.079Z,93991.67
2019-01-23T10:01:00.905Z,93991.95
2019-01-23T10:03:50.716Z,93987.36
2019-01-23T10:06:40.547Z,93982.41
2019-01-23T10:09:30.357Z,93979.52
2019-01-23T10:12:20.147Z,93978.78
2019-01-23T10:15:13.927Z,93977.39
2019-01-23T10:17:56.162Z,93974.52
2019-01-23T10:20:45.987Z,93982.72
2019-01-23T10:23:35.749Z,93965.89
2019-01-23T10:26:25.530Z,93976.53
2019-01-23T10:29:15.615Z,93947.55
2019-01-23T10:32:05.423Z,93968.91
2019-01-23T10:34:55.199Z,93973.61
2019-01-23T10:37:45.062Z,93968.62
2019-01-23T10:40:35.051Z,93955.39
2019-01-23T10:43:24.985Z,93948.25
2019-01-23T10:46:14.783Z,93936.97
2019-01-23T10:49:06.152Z,93953.58
2019-01-23T10:51:49.323Z,93947.19
2019-01-23T10:54:39.283Z,93942.27
2019-01-23T10:57:29.066Z,93940.80
2019-01-23T11:00:19.320Z,93942.36
2019-01-23T11:03:10.081Z,93945.34
2019-01-23T11:05:54.341Z,93942.22
2019-01-23T11:08:38.264Z,93918.37
2019-01-23T11:11:21.146Z,93933.08
2019-01-23T11:14:10.957Z,93934.77
2019-01-23T11:17:00.767Z,93928.98
2019-01-23T11:19:50.536Z,93920.66
2019-01-23T11:22:40.274Z,93923.55
2019-01-23T11:25:30.169Z,93915.51
2019-01-23T11:28:40.511Z,93925.14
2019-01-23T11:31:30.348Z,93924.36
2019-01-23T11:34:20.150Z,93912.92
2019-01-23T11:37:09.955Z,93916.41
2019-01-23T11:40:11.649Z,93921.31
2019-01-23T11:42:54.551Z,93892.69
2019-01-23T11:45:44.327Z,93915.42
2019-01-23T11:48:26.982Z,93912.77
2019-01-23T11:51:16.772Z,93912.31
2019-01-23T11:54:06.812Z,93911.72
2019-01-23T11:56:56.644Z,93909.52
2019-01-23T11:59:46.460Z,93916.28
2019-01-23T12:02:36.261Z,93901.70
2019-01-23T12:05:26.028Z,93908.19
2019-01-23T12:08:15.864Z,93907.81
2019-01-23T12:11:05.748Z,93899.91
2019-01-23T12:13:55.489Z,93901.11
2019-01-23T12:16:45.306Z,93906.75
2019-01-23T12:19:35.138Z,93897.41
2019-01-23T12:22:25.033Z,93901.89
2019-01-23T12:25:35.426Z,93893.25
2019-01-23T12:28:25.220Z,93891.33
2019-01-23T12:30:55.876Z,93890.30
2019-01-23T12:33:45.626Z,93884.88
2019-01-23T12:36:29.797Z,93884.55
2019-01-23T12:39:19.517Z,93882.12
2019-01-23T12:42:28.066Z,93882.81
2019-01-23T12:45:20.322Z,93886.58
2019-01-23T12:48:02.618Z,93882.77
2019-01-23T12:53:49.740Z,93886.89
2019-01-23T12:56:39.869Z,93882.28
2019-01-23T12:59:29.643Z,93883.66
2019-01-23T13:02:19.418Z,93881.20
2019-01-23T13:05:10.524Z,93874.77
2019-01-23T13:08:00.246Z,93873.32
2019-01-23T13:10:45.964Z,93872.27
2019-01-23T13:13:35.767Z,93860.59
2019-01-23T13:16:17.723Z,93861.42
2019-01-23T13:19:07.475Z,93865.37
2019-01-23T13:21:49.993Z,93864.81
2019-01-23T13:24:39.762Z,93849.45
2019-01-23T13:27:29.496Z,93873.59
2019-01-23T13:30:14.511Z,93848.41
2019-01-23T13:32:57.194Z,93873.16
2019-01-23T13:35:46.992Z,93882.13
2019-01-23T13:38:36.783Z,93874.94
2019-01-23T13:41:26.537Z,93878.67
2019-01-23T13:44:16.288Z,93871.38
2019-01-23T13:47:06.041Z,93879.78
2019-01-23T13:49:48.597Z,93868.59
2019-01-23T13:52:38.378Z,93880.01
2019-01-23T13:55:21.083Z,93878.45
2019-01-23T13:58:10.850Z,93880.34
2019-01-23T14:00:53.193Z,93863.42
2019-01-23T14:03:42.939Z,93885.95
2019-01-23T14:06:25.669Z,93888.52
2019-01-23T14:09:15.426Z,93892.69
2019-01-23T14:11:57.868Z,93877.32
2019-01-23T14:14:47.582Z,93885.28
2019-01-23T14:17:37.312Z,93886.84
2019-01-23T14:20:33.957Z,93895.06
2019-01-23T14:23:23.789Z,93896.57
2019-01-23T14:26:06.715Z,93896.13
2019-01-23T14:28:56.567Z,93888.95
2019-01-23T14:31:46.362Z,93888.22
2019-01-23T14:34:36.207Z,93896.59
2019-01-23T14:37:26.013Z,93890.53
2019-01-23T14:40:35.021Z,93897.63
2019-01-23T14:43:24.807Z,93904.37
2019-01-23T14:46:33.721Z,93907.21
2019-01-23T14:49:23.741Z,93909.72
2019-01-23T14:52:07.998Z,93903.98
2019-01-23T14:54:57.871Z,93894.53
2019-01-23T14:57:47.956Z,93907.42
2019-01-23T15:00:37.747Z,93887.11
2019-01-23T15:03:27.602Z,93919.23
2019-01-23T15:09:02.007Z,93920.23
2019-01-23T15:11:51.749Z,93924.45
2019-01-23T15:14:34.083Z,93901.75
2019-01-23T15:17:23.803Z,93926.73
2019-01-23T15:20:07.140Z,93925.58
2019-01-23T15:22:56.902Z,93939.09
2019-01-23T15:25:39.384Z,93930.59
2019-01-23T15:28:48.200Z,93933.80
2019-01-23T15:31:30.217Z,93928.46
2019-01-23T15:34:19.972Z,93931.63
2019-01-23T15:37:04.344Z,93931.63
2019-01-23T15:39:54.080Z,93934.03
2019-01-23T15:42:36.598Z,93937.52
2019-01-23T15:45:26.437Z,93945.32
2019-01-23T15:48:09.336Z,93941.71
2019-01-23T15:50:59.124Z,93946.49
2019-01-23T15:53:41.360Z,93932.94
2019-01-23T15:56:31.102Z,93928.22
2019-01-23T15:59:13.722Z,93949.65
2019-01-23T16:02:03.500Z,93937.23
2019-01-23T16:04:46.330Z,93950.83
2019-01-23T16:07:36.088Z,93938.17
2019-01-23T16:10:20.481Z,93941.59
2019-01-23T16:13:10.307Z,93955.89
2019-01-23T16:15:53.200Z,93963.69
2019-01-23T16:18:42.999Z,93973.86
2019-01-23T16:21:26.025Z,93968.02
2019-01-23T16:24:15.834Z,93971.41
2019-01-23T16:27:05.775Z,93973.17
2019-01-23T16:29:55.633Z,93973.76
2019-01-23T16:32:45.714Z,93980.56
2019-01-23T16:35:38.812Z,93987.11
2019-01-23T16:38:20.279Z,93977.92
2019-01-23T16:41:32.053Z,93991.86
2019-01-23T16:44:15.078Z,94000.89
2019-01-23T16:47:04.852Z,93998.97
2019-01-23T16:49:46.892Z,94011.87
2019-01-23T16:52:36.657Z,94015.39
2019-01-23T16:55:18.995Z,94018.25
2019-01-23T17:01:25.339Z,94029.87
2019-01-23T17:04:15.136Z,94034.25
2019-01-23T17:07:16.793Z,94019.05
2019-01-23T17:09:58.998Z,94035.94
2019-01-23T17:12:48.732Z,94038.36
2019-01-23T17:15:38.461Z,94047.77
2019-01-23T17:18:20.984Z,94049.34
2019-01-23T17:21:10.784Z,94057.67
2019-01-23T17:24:00.632Z,94058.34
2019-01-23T17:26:50.471Z,94068.41
2019-01-23T17:29:40.316Z,94075.80
2019-01-23T17:32:22.878Z,94070.34
2019-01-23T17:35:14.029Z,94075.34
2019-01-23T17:38:03.880Z,94077.45
2019-01-23T17:40:53.725Z,94079.45
2019-01-23T17:46:54.038Z,94079.27
2019-01-23T17:49:36.511Z,94083.20
2019-01-23T17:52:18.903Z,94073.19
2019-01-23T17:55:12.041Z,94082.12
2019-01-23T17:57:54.913Z,94103.89
2019-01-23T18:01:03.557Z,94095.88
2019-01-23T18:03:54.011Z,94075.45
2019-01-23T18:06:43.829Z,94103.80
2019-01-23T18:09:33.622Z,94101.60
2019-01-23T18:12:23.371Z,94097.53
2019-01-23T18:15:06.791Z,94104.70
2019-01-23T18:17:56.722Z,94111.98
2019-01-23T18:20:46.567Z,94122.52
2019-01-23T18:23:36.434Z,94114.88
2019-01-23T18:26:39.265Z,94108.52
2019-01-23T18:29:21.629Z,94112.47
2019-01-23T18:32:11.750Z,94113.92
2019-01-23T18:35:19.671Z,94113.92
2019-01-23T18:38:33.252Z,94099.58
2019-01-23T18:41:34.258Z,94103.65
2019-01-23T18:44:37.505Z,94125.23
2019-01-23T18:47:38.925Z,94112.00
2019-01-23T18:54:03.041Z,94145.41
2019-01-23T18:56:52.947Z,94143.45
2019-01-23T18:59:42.859Z,94144.58
2019-01-23T19:02:32.633Z,94142.63
2019-01-23T19:05:22.621Z,94135.91
2019-01-23T19:08:13.619Z,94138.36
2019-01-23T19:11:03.555Z,94159.41
2019-01-23T19:13:53.375Z,94159.73
2019-01-23T19:16:43.164Z,94170.37
2019-01-23T19:19:32.936Z,94168.89
2019-01-23T19:22:22.781Z,94176.77
2019-01-23T19:25:08.410Z,94176.05
2019-01-23T19:27:50.707Z,94176.39
2019-01-23T19:33:27.382Z,94188.48
2019-01-23T19:36:17.210Z,94192.00
2019-01-23T19:39:08.551Z,94198.74
2019-01-23T19:41:58.445Z,94198.45
2019-01-23T19:44:48.271Z,94206.27
2019-01-23T19:47:38.267Z,94204.23
2019-01-23T19:50:28.048Z,94205.89
2019-01-23T19:53:17.860Z,94202.30
2019-01-23T19:56:07.680Z,94212.09
2019-01-23T19:58:57.483Z,94212.09
2019-01-23T20:01:47.307Z,94209.97
2019-01-23T20:04:56.222Z,94212.09
2019-01-23T20:07:38.693Z,94204.78
2019-01-23T20:10:29.068Z,94214.31
2019-01-23T20:13:11.504Z,94223.39
2019-01-23T20:16:01.320Z,94229.47
2019-01-23T20:18:44.021Z,94234.47
2019-01-23T20:21:34.088Z,94208.18
2019-01-23T20:24:16.244Z,94215.19
2019-01-23T20:27:06.056Z,94241.23
2019-01-23T20:29:48.546Z,94229.45
2019-01-23T20:35:33.814Z,94254.42
2019-01-23T20:38:23.604Z,94233.66
2019-01-23T20:41:13.412Z,94260.88
2019-01-23T20:44:03.222Z,94257.15
2019-01-23T20:46:52.977Z,94265.72
2019-01-23T20:49:35.092Z,94266.30
2019-01-23T20:52:25.004Z,94267.48
2019-01-23T20:58:03.433Z,94278.00
2019-01-23T21:00:53.178Z,94281.41
2019-01-23T21:03:35.808Z,94271.08
2019-01-23T21:06:25.612Z,94286.93
2019-01-23T21:09:08.823Z,94290.02
2019-01-23T21:11:58.635Z,94295.13
2019-01-23T21:14:40.797Z,94300.14
2019-01-23T21:17:30.621Z,94294.16
2019-01-23T21:20:13.107Z,94294.72
2019-01-23T21:23:02.874Z,94302.58
2019-01-23T21:25:45.534Z,94306.25
2019-01-23T21:28:35.380Z,94311.70
2019-01-23T21:31:17.764Z,94306.86
2019-01-23T21:34:07.615Z,94312.97
2019-01-23T21:36:50.829Z,94321.20
2019-01-23T21:45:17.310Z,94323.36
2019-01-23T21:48:07.618Z,94316.41
2019-01-23T22:00:16.362Z,94334.45
2019-01-23T22:03:07.421Z,94335.86
2019-01-23T22:05:49.984Z,94339.38
2019-01-23T22:08:39.938Z,94343.01
2019-01-23T22:11:45.056Z,94339.88
2019-01-23T22:14:27.865Z,94338.54
2019-01-23T22:17:17.683Z,94346.67
2019-01-23T22:20:04.610Z,94345.90
2019-01-23T22:22:54.594Z,94346.63
2019-01-23T22:25:37.270Z,94350.27
2019-01-23T22:28:28.158Z,94363.88
2019-01-23T22:31:10.406Z,94367.30
2019-01-23T22:34:00.213Z,94365.31
2019-01-23T22:37:09.109Z,94378.38
2019-01-23T22:39:53.241Z,94384.13
2019-01-23T22:42:36.372Z,94385.22
2019-01-23T22:45:26.203Z,94390.11
2019-01-23T22:48:16.185Z,94393.50
2019-01-23T22:51:06.247Z,94398.89
2019-01-23T22:53:56.449Z,94406.66
2019-01-23T22:56:46.595Z,94401.55
2019-01-23T22:59:36.445Z,94401.97
2019-01-23T23:02:26.465Z,94389.30
2019-01-23T23:05:17.025Z,94417.34
2019-01-23T23:11:48.977Z,94415.25
2019-01-23T23:14:31.937Z,94413.47
2019-01-23T23:17:21.801Z,94418.80
2019-01-23T23:20:06.049Z,94415.52
2019-01-23T23:22:55.910Z,94416.96
2019-01-23T23:25:46.014Z,94422.01
2019-01-23T23:28:37.519Z,94415.61
2019-01-23T23:31:26.921Z,94432.63
2019-01-23T23:34:11.175Z,94434.12
2019-01-23T23:37:01.046Z,94430.98
2019-01-23T23:42:55.017Z,94435.72
2019-01-23T23:45:44.847Z,94431.25
2019-01-23T23:51:34.157Z,94436.32
2019-01-23T23:54:05.035Z,94445.56
2019-01-23T23:56:54.779Z,94441.80
2019-01-23T23:59:41.274Z,94447.72
